Main page
METAR-TAF:

METAR-TAF

Airports :

Tenerife South, Spain

Tenerife–South Airport

latitude: 28-03N, longitude: 016-34W, elevation: 64 m

Current weather observation

The report was made 27 minutes ago, at 00:30 UTC
Wind 11 kt from the East/Northeast
Temperature 16°C
Humidity 63%
Pressure 1022 hPa
Visibility 10 km or more
Few clouds at a height of 2500 ft

METAR: GCTS 160030Z 06011KT 9999 FEW025 16/09 Q1022 NOSIG

Time: 00:57 (00:57 UTC)

Forecast

The report was made 4 hours and 57 minutes ago, at 20:00 UTC
Forecast valid from 15 at 21 UTC to 16 at 21 UTC
Wind 12 kt from the North/Northeast
Visibility 10 km or more
Few clouds at a height of 2000 ft
Becoming
from 16 at 09 UTC to 16 at 11 UTC
Wind 15 kt from the East
Probability 40% :
Temporary
from 16 at 19 UTC to 16 at 21 UTC
Wind 6 kt from the Northwest

TAF: GCTS 152000Z 1521/1621 03012KT 9999 FEW020 TX21/1614Z TN15/1606Z BECMG 1609/1611 09015KT PROB40 TEMPO 1619/1621 32006KT

Weather observations and forecasts of more than 4000 airports (METAR and TAF reports).

The available stations are represented by yellow and red dots on the map.

Hover mouse over dot to see the name of the station.

Then click to see weather observations and forecasts.

To change the map : click on the green buttons with a black cross to zoom in, on the green button with a dash to zoom out, or on the green arrows for adjacent maps.


METAR-TAF: